sensor_id;sensor_type;location;lat;lon;timestamp;P1;durP1;ratioP1;P2;durP2;ratioP2
13807;SDS011;40769;51.512;5.494;2024-01-30T00:01:45;3.22;;;2.92;;
13807;SDS011;40769;51.512;5.494;2024-01-30T00:04:11;3.47;;;3.17;;
13807;SDS011;40769;51.512;5.494;2024-01-30T00:06:36;3.78;;;3.47;;
13807;SDS011;40769;51.512;5.494;2024-01-30T00:09:02;3.35;;;3.13;;
13807;SDS011;40769;51.512;5.494;2024-01-30T00:11:27;3.50;;;3.30;;
13807;SDS011;40769;51.512;5.494;2024-01-30T00:13:54;3.50;;;3.30;;
13807;SDS011;40769;51.512;5.494;2024-01-30T00:16:24;3.90;;;3.50;;
13807;SDS011;40769;51.512;5.494;2024-01-30T00:18:50;3.58;;;3.28;;
13807;SDS011;40769;51.512;5.494;2024-01-30T00:21:16;3.60;;;3.30;;
13807;SDS011;40769;51.512;5.494;2024-01-30T00:23:42;3.38;;;3.08;;
13807;SDS011;40769;51.512;5.494;2024-01-30T00:26:08;3.40;;;3.13;;
13807;SDS011;40769;51.512;5.494;2024-01-30T00:28:34;3.60;;;3.30;;
13807;SDS011;40769;51.512;5.494;2024-01-30T00:31:00;3.45;;;3.15;;
13807;SDS011;40769;51.512;5.494;2024-01-30T00:33:25;3.63;;;3.33;;
13807;SDS011;40769;51.512;5.494;2024-01-30T00:35:51;3.30;;;3.10;;
13807;SDS011;40769;51.512;5.494;2024-01-30T00:38:16;3.30;;;3.10;;
13807;SDS011;40769;51.512;5.494;2024-01-30T00:40:44;3.47;;;3.17;;
13807;SDS011;40769;51.512;5.494;2024-01-30T00:43:10;3.35;;;3.08;;
13807;SDS011;40769;51.512;5.494;2024-01-30T00:45:36;3.15;;;2.95;;
13807;SDS011;40769;51.512;5.494;2024-01-30T00:48:01;3.25;;;3.05;;
13807;SDS011;40769;51.512;5.494;2024-01-30T00:50:27;3.05;;;2.75;;
13807;SDS011;40769;51.512;5.494;2024-01-30T00:52:52;3.78;;;3.47;;
13807;SDS011;40769;51.512;5.494;2024-01-30T00:55:18;3.53;;;3.30;;
13807;SDS011;40769;51.512;5.494;2024-01-30T00:57:43;3.33;;;3.13;;
13807;SDS011;40769;51.512;5.494;2024-01-30T01:00:09;3.38;;;3.10;;
13807;SDS011;40769;51.512;5.494;2024-01-30T01:02:35;3.42;;;3.20;;
13807;SDS011;40769;51.512;5.494;2024-01-30T01:05:01;3.60;;;3.30;;
13807;SDS011;40769;51.512;5.494;2024-01-30T01:07:27;3.60;;;3.30;;
13807;SDS011;40769;51.512;5.494;2024-01-30T01:09:53;3.88;;;3.58;;
13807;SDS011;40769;51.512;5.494;2024-01-30T01:12:18;3.60;;;3.30;;
13807;SDS011;40769;51.512;5.494;2024-01-30T01:14:44;4.10;;;3.80;;
13807;SDS011;40769;51.512;5.494;2024-01-30T01:17:10;3.60;;;3.30;;
13807;SDS011;40769;51.512;5.494;2024-01-30T01:19:35;3.95;;;3.63;;
13807;SDS011;40769;51.512;5.494;2024-01-30T01:22:01;3.47;;;3.17;;
13807;SDS011;40769;51.512;5.494;2024-01-30T01:24:28;3.22;;;3.03;;
13807;SDS011;40769;51.512;5.494;2024-01-30T01:26:55;4.10;;;3.80;;
13807;SDS011;40769;51.512;5.494;2024-01-30T01:29:22;3.50;;;3.20;;
13807;SDS011;40769;51.512;5.494;2024-01-30T01:31:53;3.63;;;3.33;;
13807;SDS011;40769;51.512;5.494;2024-01-30T01:34:19;3.72;;;3.42;;
13807;SDS011;40769;51.512;5.494;2024-01-30T01:36:45;3.53;;;3.28;;
13807;SDS011;40769;51.512;5.494;2024-01-30T01:39:11;3.28;;;3.08;;
13807;SDS011;40769;51.512;5.494;2024-01-30T01:41:36;3.58;;;3.28;;
13807;SDS011;40769;51.512;5.494;2024-01-30T01:44:02;3.80;;;3.50;;
13807;SDS011;40769;51.512;5.494;2024-01-30T01:46:27;3.80;;;3.50;;
13807;SDS011;40769;51.512;5.494;2024-01-30T01:48:57;3.65;;;3.35;;
13807;SDS011;40769;51.512;5.494;2024-01-30T01:51:24;3.42;;;3.22;;
13807;SDS011;40769;51.512;5.494;2024-01-30T01:53:53;3.25;;;3.05;;
13807;SDS011;40769;51.512;5.494;2024-01-30T01:56:20;3.42;;;3.22;;
13807;SDS011;40769;51.512;5.494;2024-01-30T01:58:46;3.38;;;3.08;;
13807;SDS011;40769;51.512;5.494;2024-01-30T02:01:12;3.20;;;3.00;;
13807;SDS011;40769;51.512;5.494;2024-01-30T02:03:39;3.70;;;3.40;;
13807;SDS011;40769;51.512;5.494;2024-01-30T02:06:06;3.45;;;3.17;;
13807;SDS011;40769;51.512;5.494;2024-01-30T02:08:31;3.45;;;3.17;;
13807;SDS011;40769;51.512;5.494;2024-01-30T02:10:57;3.20;;;2.95;;
13807;SDS011;40769;51.512;5.494;2024-01-30T02:13:23;3.55;;;3.25;;
13807;SDS011;40769;51.512;5.494;2024-01-30T02:15:49;3.33;;;3.03;;
13807;SDS011;40769;51.512;5.494;2024-01-30T02:18:15;3.55;;;3.25;;
13807;SDS011;40769;51.512;5.494;2024-01-30T02:20:41;3.30;;;3.00;;
13807;SDS011;40769;51.512;5.494;2024-01-30T02:23:11;3.35;;;3.13;;
13807;SDS011;40769;51.512;5.494;2024-01-30T02:25:40;3.03;;;2.78;;
13807;SDS011;40769;51.512;5.494;2024-01-30T02:28:10;3.53;;;3.22;;
13807;SDS011;40769;51.512;5.494;2024-01-30T02:30:37;3.47;;;3.17;;
13807;SDS011;40769;51.512;5.494;2024-01-30T02:33:03;3.80;;;3.50;;
13807;SDS011;40769;51.512;5.494;2024-01-30T02:35:28;3.50;;;3.20;;
13807;SDS011;40769;51.512;5.494;2024-01-30T02:37:54;3.80;;;3.50;;
13807;SDS011;40769;51.512;5.494;2024-01-30T02:40:19;3.40;;;3.20;;
13807;SDS011;40769;51.512;5.494;2024-01-30T02:42:45;3.63;;;3.33;;
13807;SDS011;40769;51.512;5.494;2024-01-30T02:45:11;4.10;;;3.80;;
13807;SDS011;40769;51.512;5.494;2024-01-30T02:47:37;3.60;;;3.30;;
13807;SDS011;40769;51.512;5.494;2024-01-30T02:50:03;3.58;;;3.28;;
13807;SDS011;40769;51.512;5.494;2024-01-30T02:52:29;3.50;;;3.20;;
13807;SDS011;40769;51.512;5.494;2024-01-30T02:54:55;3.95;;;3.65;;
13807;SDS011;40769;51.512;5.494;2024-01-30T02:57:20;3.75;;;3.45;;
13807;SDS011;40769;51.512;5.494;2024-01-30T02:59:46;3.42;;;3.13;;
13807;SDS011;40769;51.512;5.494;2024-01-30T03:02:12;3.38;;;3.17;;
13807;SDS011;40769;51.512;5.494;2024-01-30T03:04:37;3.55;;;3.25;;
13807;SDS011;40769;51.512;5.494;2024-01-30T03:07:06;3.50;;;3.20;;
13807;SDS011;40769;51.512;5.494;2024-01-30T03:09:31;3.22;;;2.97;;
13807;SDS011;40769;51.512;5.494;2024-01-30T03:11:57;3.25;;;3.05;;
13807;SDS011;40769;51.512;5.494;2024-01-30T03:14:23;3.25;;;3.05;;
13807;SDS011;40769;51.512;5.494;2024-01-30T03:16:48;3.92;;;3.63;;
13807;SDS011;40769;51.512;5.494;2024-01-30T03:19:14;3.35;;;3.08;;
13807;SDS011;40769;51.512;5.494;2024-01-30T03:21:39;3.38;;;3.17;;
13807;SDS011;40769;51.512;5.494;2024-01-30T03:24:05;3.40;;;3.20;;
13807;SDS011;40769;51.512;5.494;2024-01-30T03:26:30;3.50;;;3.20;;
13807;SDS011;40769;51.512;5.494;2024-01-30T03:28:56;3.45;;;3.15;;
13807;SDS011;40769;51.512;5.494;2024-01-30T03:31:22;3.22;;;3.03;;
13807;SDS011;40769;51.512;5.494;2024-01-30T03:33:47;3.67;;;3.38;;
13807;SDS011;40769;51.512;5.494;2024-01-30T03:36:14;3.25;;;3.05;;
13807;SDS011;40769;51.512;5.494;2024-01-30T03:38:41;3.55;;;3.25;;
13807;SDS011;40769;51.512;5.494;2024-01-30T03:41:09;3.70;;;3.40;;
13807;SDS011;40769;51.512;5.494;2024-01-30T03:43:35;3.45;;;3.17;;
13807;SDS011;40769;51.512;5.494;2024-01-30T03:46:01;3.15;;;2.95;;
13807;SDS011;40769;51.512;5.494;2024-01-30T03:48:28;3.38;;;3.17;;
13807;SDS011;40769;51.512;5.494;2024-01-30T03:50:54;3.45;;;3.15;;
13807;SDS011;40769;51.512;5.494;2024-01-30T03:53:20;3.20;;;3.00;;
13807;SDS011;40769;51.512;5.494;2024-01-30T03:55:46;3.30;;;3.05;;
13807;SDS011;40769;51.512;5.494;2024-01-30T03:58:11;3.47;;;3.17;;
13807;SDS011;40769;51.512;5.494;2024-01-30T04:00:37;3.30;;;3.10;;
13807;SDS011;40769;51.512;5.494;2024-01-30T04:03:02;3.22;;;3.00;;
13807;SDS011;40769;51.512;5.494;2024-01-30T04:05:28;3.20;;;3.00;;
13807;SDS011;40769;51.512;5.494;2024-01-30T04:07:54;3.40;;;3.10;;
13807;SDS011;40769;51.512;5.494;2024-01-30T04:10:19;3.30;;;3.10;;
13807;SDS011;40769;51.512;5.494;2024-01-30T04:12:45;3.30;;;3.10;;
13807;SDS011;40769;51.512;5.494;2024-01-30T04:15:10;3.35;;;3.05;;
13807;SDS011;40769;51.512;5.494;2024-01-30T04:17:36;2.95;;;2.75;;
13807;SDS011;40769;51.512;5.494;2024-01-30T04:20:02;3.30;;;3.08;;
13807;SDS011;40769;51.512;5.494;2024-01-30T04:22:28;3.42;;;3.13;;
13807;SDS011;40769;51.512;5.494;2024-01-30T04:24:53;3.58;;;2.90;;
13807;SDS011;40769;51.512;5.494;2024-01-30T04:27:19;2.95;;;2.70;;
13807;SDS011;40769;51.512;5.494;2024-01-30T04:29:45;3.25;;;3.00;;
13807;SDS011;40769;51.512;5.494;2024-01-30T04:32:10;3.60;;;3.10;;
13807;SDS011;40769;51.512;5.494;2024-01-30T04:34:36;3.30;;;3.00;;
13807;SDS011;40769;51.512;5.494;2024-01-30T04:37:02;3.97;;;2.90;;
13807;SDS011;40769;51.512;5.494;2024-01-30T04:39:28;2.83;;;2.63;;
13807;SDS011;40769;51.512;5.494;2024-01-30T04:41:54;2.90;;;2.70;;
13807;SDS011;40769;51.512;5.494;2024-01-30T04:44:19;2.65;;;2.45;;
13807;SDS011;40769;51.512;5.494;2024-01-30T04:46:45;3.05;;;2.60;;
13807;SDS011;40769;51.512;5.494;2024-01-30T04:49:10;2.53;;;2.33;;
13807;SDS011;40769;51.512;5.494;2024-01-30T04:51:36;3.22;;;2.92;;
13807;SDS011;40769;51.512;5.494;2024-01-30T04:54:01;2.90;;;2.70;;
13807;SDS011;40769;51.512;5.494;2024-01-30T04:56:27;3.15;;;2.85;;
13807;SDS011;40769;51.512;5.494;2024-01-30T04:58:53;2.88;;;2.65;;
13807;SDS011;40769;51.512;5.494;2024-01-30T05:01:18;2.40;;;2.30;;
13807;SDS011;40769;51.512;5.494;2024-01-30T05:03:44;2.83;;;2.63;;
13807;SDS011;40769;51.512;5.494;2024-01-30T05:06:10;2.50;;;2.30;;
13807;SDS011;40769;51.512;5.494;2024-01-30T05:08:35;3.05;;;2.72;;
13807;SDS011;40769;51.512;5.494;2024-01-30T05:11:06;3.25;;;2.95;;
13807;SDS011;40769;51.512;5.494;2024-01-30T05:13:32;2.95;;;2.70;;
13807;SDS011;40769;51.512;5.494;2024-01-30T05:15:57;3.00;;;2.70;;
13807;SDS011;40769;51.512;5.494;2024-01-30T05:18:24;3.10;;;2.80;;
13807;SDS011;40769;51.512;5.494;2024-01-30T05:20:50;3.00;;;2.63;;
13807;SDS011;40769;51.512;5.494;2024-01-30T05:23:16;2.92;;;2.72;;
13807;SDS011;40769;51.512;5.494;2024-01-30T05:25:41;3.85;;;3.10;;
13807;SDS011;40769;51.512;5.494;2024-01-30T05:28:07;2.88;;;2.67;;
13807;SDS011;40769;51.512;5.494;2024-01-30T05:30:33;3.22;;;2.92;;
13807;SDS011;40769;51.512;5.494;2024-01-30T05:32:58;3.00;;;2.80;;
13807;SDS011;40769;51.512;5.494;2024-01-30T05:35:25;3.03;;;2.83;;
13807;SDS011;40769;51.512;5.494;2024-01-30T05:37:51;3.28;;;3.08;;
13807;SDS011;40769;51.512;5.494;2024-01-30T05:40:16;3.17;;;2.95;;
13807;SDS011;40769;51.512;5.494;2024-01-30T05:42:42;2.55;;;2.35;;
13807;SDS011;40769;51.512;5.494;2024-01-30T05:45:08;3.00;;;2.78;;
13807;SDS011;40769;51.512;5.494;2024-01-30T05:47:34;2.83;;;2.63;;
13807;SDS011;40769;51.512;5.494;2024-01-30T05:50:00;2.80;;;2.60;;
13807;SDS011;40769;51.512;5.494;2024-01-30T05:52:25;2.85;;;2.65;;
13807;SDS011;40769;51.512;5.494;2024-01-30T05:54:51;2.75;;;2.55;;
13807;SDS011;40769;51.512;5.494;2024-01-30T05:57:16;2.88;;;2.67;;
13807;SDS011;40769;51.512;5.494;2024-01-30T05:59:42;3.30;;;3.10;;
13807;SDS011;40769;51.512;5.494;2024-01-30T06:02:10;2.80;;;2.60;;
13807;SDS011;40769;51.512;5.494;2024-01-30T06:04:36;2.83;;;2.63;;
13807;SDS011;40769;51.512;5.494;2024-01-30T06:07:01;2.65;;;2.45;;
13807;SDS011;40769;51.512;5.494;2024-01-30T06:09:27;3.45;;;2.92;;
13807;SDS011;40769;51.512;5.494;2024-01-30T06:11:54;2.97;;;2.78;;
13807;SDS011;40769;51.512;5.494;2024-01-30T06:14:19;3.45;;;3.15;;
13807;SDS011;40769;51.512;5.494;2024-01-30T06:16:45;3.10;;;2.90;;
13807;SDS011;40769;51.512;5.494;2024-01-30T06:19:11;3.15;;;2.95;;
13807;SDS011;40769;51.512;5.494;2024-01-30T06:21:36;3.28;;;2.97;;
13807;SDS011;40769;51.512;5.494;2024-01-30T06:24:03;3.22;;;2.95;;
13807;SDS011;40769;51.512;5.494;2024-01-30T06:26:29;3.28;;;2.95;;
13807;SDS011;40769;51.512;5.494;2024-01-30T06:28:54;3.80;;;3.50;;
13807;SDS011;40769;51.512;5.494;2024-01-30T06:31:23;3.53;;;3.22;;
13807;SDS011;40769;51.512;5.494;2024-01-30T06:33:49;3.17;;;2.90;;
13807;SDS011;40769;51.512;5.494;2024-01-30T06:36:15;3.38;;;3.08;;
13807;SDS011;40769;51.512;5.494;2024-01-30T06:38:40;2.88;;;2.67;;
13807;SDS011;40769;51.512;5.494;2024-01-30T06:41:06;3.17;;;2.95;;
13807;SDS011;40769;51.512;5.494;2024-01-30T06:43:32;3.22;;;2.92;;
13807;SDS011;40769;51.512;5.494;2024-01-30T06:45:58;4.13;;;3.53;;
13807;SDS011;40769;51.512;5.494;2024-01-30T06:48:24;3.35;;;3.05;;
13807;SDS011;40769;51.512;5.494;2024-01-30T06:50:50;2.90;;;2.70;;
13807;SDS011;40769;51.512;5.494;2024-01-30T06:53:18;2.92;;;2.70;;
13807;SDS011;40769;51.512;5.494;2024-01-30T06:55:44;3.38;;;3.08;;
13807;SDS011;40769;51.512;5.494;2024-01-30T06:58:10;2.83;;;2.58;;
13807;SDS011;40769;51.512;5.494;2024-01-30T07:00:35;3.35;;;3.05;;
13807;SDS011;40769;51.512;5.494;2024-01-30T07:03:01;3.47;;;3.17;;
13807;SDS011;40769;51.512;5.494;2024-01-30T07:05:27;4.65;;;4.25;;
13807;SDS011;40769;51.512;5.494;2024-01-30T07:07:52;7.35;;;6.65;;
13807;SDS011;40769;51.512;5.494;2024-01-30T07:10:18;6.05;;;5.55;;
13807;SDS011;40769;51.512;5.494;2024-01-30T07:12:44;9.63;;;8.80;;
13807;SDS011;40769;51.512;5.494;2024-01-30T07:15:09;5.80;;;5.30;;
13807;SDS011;40769;51.512;5.494;2024-01-30T07:17:35;4.47;;;4.05;;
13807;SDS011;40769;51.512;5.494;2024-01-30T07:20:01;4.88;;;3.80;;
13807;SDS011;40769;51.512;5.494;2024-01-30T07:22:30;3.83;;;3.42;;
13807;SDS011;40769;51.512;5.494;2024-01-30T07:24:56;3.50;;;3.20;;
13807;SDS011;40769;51.512;5.494;2024-01-30T07:27:21;3.55;;;3.25;;
13807;SDS011;40769;51.512;5.494;2024-01-30T07:29:47;3.45;;;3.15;;
13807;SDS011;40769;51.512;5.494;2024-01-30T07:32:13;3.45;;;3.15;;
13807;SDS011;40769;51.512;5.494;2024-01-30T07:34:38;2.95;;;2.70;;
13807;SDS011;40769;51.512;5.494;2024-01-30T07:37:04;3.22;;;3.00;;
13807;SDS011;40769;51.512;5.494;2024-01-30T07:39:30;3.20;;;3.00;;
13807;SDS011;40769;51.512;5.494;2024-01-30T07:41:55;3.30;;;3.10;;
13807;SDS011;40769;51.512;5.494;2024-01-30T07:44:21;3.55;;;3.25;;
13807;SDS011;40769;51.512;5.494;2024-01-30T07:46:48;3.67;;;3.38;;
13807;SDS011;40769;51.512;5.494;2024-01-30T07:49:14;3.63;;;3.05;;
13807;SDS011;40769;51.512;5.494;2024-01-30T07:51:39;3.38;;;3.08;;
13807;SDS011;40769;51.512;5.494;2024-01-30T07:54:14;3.58;;;3.28;;
13807;SDS011;40769;51.512;5.494;2024-01-30T07:56:40;3.53;;;3.22;;
13807;SDS011;40769;51.512;5.494;2024-01-30T07:59:05;3.67;;;3.38;;
13807;SDS011;40769;51.512;5.494;2024-01-30T08:01:35;3.00;;;2.80;;
13807;SDS011;40769;51.512;5.494;2024-01-30T08:04:00;2.97;;;2.75;;
13807;SDS011;40769;51.512;5.494;2024-01-30T08:06:26;3.22;;;2.92;;
13807;SDS011;40769;51.512;5.494;2024-01-30T08:08:51;3.15;;;2.78;;
13807;SDS011;40769;51.512;5.494;2024-01-30T08:11:19;2.83;;;2.63;;
13807;SDS011;40769;51.512;5.494;2024-01-30T08:13:45;3.28;;;2.97;;
13807;SDS011;40769;51.512;5.494;2024-01-30T08:16:11;3.67;;;2.83;;
13807;SDS011;40769;51.512;5.494;2024-01-30T08:18:36;3.63;;;3.10;;
13807;SDS011;40769;51.512;5.494;2024-01-30T08:21:02;3.28;;;3.00;;
13807;SDS011;40769;51.512;5.494;2024-01-30T08:23:29;3.72;;;3.38;;
13807;SDS011;40769;51.512;5.494;2024-01-30T08:25:54;2.85;;;2.65;;
13807;SDS011;40769;51.512;5.494;2024-01-30T08:28:20;3.30;;;3.00;;
13807;SDS011;40769;51.512;5.494;2024-01-30T08:30:46;3.40;;;3.10;;
13807;SDS011;40769;51.512;5.494;2024-01-30T08:33:11;3.63;;;3.33;;
13807;SDS011;40769;51.512;5.494;2024-01-30T08:35:37;3.95;;;3.55;;
13807;SDS011;40769;51.512;5.494;2024-01-30T08:38:03;3.20;;;2.90;;
13807;SDS011;40769;51.512;5.494;2024-01-30T08:40:29;3.53;;;3.00;;
13807;SDS011;40769;51.512;5.494;2024-01-30T08:42:55;3.15;;;2.85;;
13807;SDS011;40769;51.512;5.494;2024-01-30T08:45:21;3.72;;;3.42;;
13807;SDS011;40769;51.512;5.494;2024-01-30T08:47:47;3.58;;;3.20;;
13807;SDS011;40769;51.512;5.494;2024-01-30T08:50:12;3.90;;;3.55;;
13807;SDS011;40769;51.512;5.494;2024-01-30T08:52:38;3.47;;;3.17;;
13807;SDS011;40769;51.512;5.494;2024-01-30T08:55:03;4.20;;;3.80;;
13807;SDS011;40769;51.512;5.494;2024-01-30T08:57:29;5.65;;;4.53;;
13807;SDS011;40769;51.512;5.494;2024-01-30T08:59:55;3.97;;;3.58;;
13807;SDS011;40769;51.512;5.494;2024-01-30T09:02:21;3.50;;;3.20;;
13807;SDS011;40769;51.512;5.494;2024-01-30T09:04:47;3.92;;;3.53;;
13807;SDS011;40769;51.512;5.494;2024-01-30T09:07:12;4.00;;;3.20;;
13807;SDS011;40769;51.512;5.494;2024-01-30T09:09:39;4.65;;;3.75;;
13807;SDS011;40769;51.512;5.494;2024-01-30T09:12:06;3.70;;;3.40;;
13807;SDS011;40769;51.512;5.494;2024-01-30T09:14:34;3.58;;;3.28;;
13807;SDS011;40769;51.512;5.494;2024-01-30T09:17:00;4.50;;;4.10;;
13807;SDS011;40769;51.512;5.494;2024-01-30T09:19:28;3.45;;;3.10;;
13807;SDS011;40769;51.512;5.494;2024-01-30T09:21:53;3.75;;;3.45;;
13807;SDS011;40769;51.512;5.494;2024-01-30T09:24:19;4.68;;;3.75;;
13807;SDS011;40769;51.512;5.494;2024-01-30T09:26:45;4.43;;;4.03;;
13807;SDS011;40769;51.512;5.494;2024-01-30T09:29:10;3.42;;;3.13;;
13807;SDS011;40769;51.512;5.494;2024-01-30T09:31:36;3.67;;;3.38;;
13807;SDS011;40769;51.512;5.494;2024-01-30T09:34:02;3.90;;;3.45;;
13807;SDS011;40769;51.512;5.494;2024-01-30T09:36:27;3.50;;;3.17;;
13807;SDS011;40769;51.512;5.494;2024-01-30T09:38:53;5.03;;;4.20;;
13807;SDS011;40769;51.512;5.494;2024-01-30T09:41:19;3.75;;;3.38;;
13807;SDS011;40769;51.512;5.494;2024-01-30T09:43:47;3.97;;;3.58;;
13807;SDS011;40769;51.512;5.494;2024-01-30T09:46:14;4.25;;;3.90;;
13807;SDS011;40769;51.512;5.494;2024-01-30T09:48:42;3.78;;;3.47;;
13807;SDS011;40769;51.512;5.494;2024-01-30T09:51:08;4.93;;;4.38;;
13807;SDS011;40769;51.512;5.494;2024-01-30T09:53:35;4.38;;;3.55;;
13807;SDS011;40769;51.512;5.494;2024-01-30T09:56:02;3.72;;;3.42;;
13807;SDS011;40769;51.512;5.494;2024-01-30T09:58:28;4.47;;;3.42;;
13807;SDS011;40769;51.512;5.494;2024-01-30T10:00:54;4.60;;;4.18;;
13807;SDS011;40769;51.512;5.494;2024-01-30T10:03:22;4.43;;;4.03;;
13807;SDS011;40769;51.512;5.494;2024-01-30T10:05:50;4.50;;;4.10;;
13807;SDS011;40769;51.512;5.494;2024-01-30T10:08:19;4.85;;;3.92;;
13807;SDS011;40769;51.512;5.494;2024-01-30T10:10:46;5.32;;;3.90;;
13807;SDS011;40769;51.512;5.494;2024-01-30T10:13:12;4.03;;;3.55;;
13807;SDS011;40769;51.512;5.494;2024-01-30T10:15:37;5.13;;;4.32;;
13807;SDS011;40769;51.512;5.494;2024-01-30T10:18:04;4.93;;;4.38;;
13807;SDS011;40769;51.512;5.494;2024-01-30T10:20:31;5.35;;;4.15;;
13807;SDS011;40769;51.512;5.494;2024-01-30T10:22:57;4.70;;;4.28;;
13807;SDS011;40769;51.512;5.494;2024-01-30T10:25:23;4.30;;;3.85;;
13807;SDS011;40769;51.512;5.494;2024-01-30T10:27:52;6.00;;;4.53;;
13807;SDS011;40769;51.512;5.494;2024-01-30T10:30:20;4.53;;;4.13;;
13807;SDS011;40769;51.512;5.494;2024-01-30T10:32:46;5.10;;;4.60;;
13807;SDS011;40769;51.512;5.494;2024-01-30T10:35:12;5.22;;;4.45;;
13807;SDS011;40769;51.512;5.494;2024-01-30T10:37:37;4.47;;;4.07;;
13807;SDS011;40769;51.512;5.494;2024-01-30T10:40:03;4.32;;;3.72;;
13807;SDS011;40769;51.512;5.494;2024-01-30T10:42:31;4.32;;;3.88;;
13807;SDS011;40769;51.512;5.494;2024-01-30T10:45:02;5.93;;;4.25;;
13807;SDS011;40769;51.512;5.494;2024-01-30T10:47:34;6.97;;;4.55;;
13807;SDS011;40769;51.512;5.494;2024-01-30T10:50:03;4.60;;;4.20;;
13807;SDS011;40769;51.512;5.494;2024-01-30T10:52:30;4.88;;;4.38;;
13807;SDS011;40769;51.512;5.494;2024-01-30T10:54:57;4.78;;;4.35;;
13807;SDS011;40769;51.512;5.494;2024-01-30T10:57:24;5.57;;;4.47;;
13807;SDS011;40769;51.512;5.494;2024-01-30T10:59:51;5.60;;;4.72;;
13807;SDS011;40769;51.512;5.494;2024-01-30T11:02:20;4.47;;;4.10;;
13807;SDS011;40769;51.512;5.494;2024-01-30T11:04:46;6.55;;;4.80;;
13807;SDS011;40769;51.512;5.494;2024-01-30T11:09:48;5.20;;;4.55;;
13807;SDS011;40769;51.512;5.494;2024-01-30T11:12:38;4.70;;;4.30;;
13807;SDS011;40769;51.512;5.494;2024-01-30T11:15:06;4.93;;;4.53;;
13807;SDS011;40769;51.512;5.494;2024-01-30T11:22:47;6.20;;;5.20;;
13807;SDS011;40769;51.512;5.494;2024-01-30T11:25:16;6.10;;;5.55;;
13807;SDS011;40769;51.512;5.494;2024-01-30T11:27:43;5.63;;;5.07;;
13807;SDS011;40769;51.512;5.494;2024-01-30T11:30:09;5.63;;;4.85;;
13807;SDS011;40769;51.512;5.494;2024-01-30T11:32:35;5.47;;;4.80;;
13807;SDS011;40769;51.512;5.494;2024-01-30T11:35:05;4.80;;;4.40;;
13807;SDS011;40769;51.512;5.494;2024-01-30T11:37:31;5.78;;;5.28;;
13807;SDS011;40769;51.512;5.494;2024-01-30T11:40:01;6.60;;;5.05;;
13807;SDS011;40769;51.512;5.494;2024-01-30T11:42:29;5.45;;;4.75;;
13807;SDS011;40769;51.512;5.494;2024-01-30T11:44:55;5.20;;;4.70;;
13807;SDS011;40769;51.512;5.494;2024-01-30T11:47:22;5.60;;;4.50;;
13807;SDS011;40769;51.512;5.494;2024-01-30T11:49:48;4.75;;;4.35;;
13807;SDS011;40769;51.512;5.494;2024-01-30T11:52:13;4.03;;;3.70;;
13807;SDS011;40769;51.512;5.494;2024-01-30T11:54:39;5.07;;;4.60;;
13807;SDS011;40769;51.512;5.494;2024-01-30T11:57:05;5.00;;;4.45;;
13807;SDS011;40769;51.512;5.494;2024-01-30T11:59:31;5.35;;;3.83;;
13807;SDS011;40769;51.512;5.494;2024-01-30T12:01:56;4.70;;;4.10;;
13807;SDS011;40769;51.512;5.494;2024-01-30T12:04:22;3.97;;;3.60;;
13807;SDS011;40769;51.512;5.494;2024-01-30T12:06:50;4.97;;;4.47;;
13807;SDS011;40769;51.512;5.494;2024-01-30T12:09:16;4.78;;;4.35;;
13807;SDS011;40769;51.512;5.494;2024-01-30T12:11:46;5.35;;;4.57;;
13807;SDS011;40769;51.512;5.494;2024-01-30T12:14:12;4.63;;;4.20;;
13807;SDS011;40769;51.512;5.494;2024-01-30T12:16:39;3.90;;;3.58;;
13807;SDS011;40769;51.512;5.494;2024-01-30T12:19:04;4.25;;;3.85;;
13807;SDS011;40769;51.512;5.494;2024-01-30T12:21:30;3.60;;;3.08;;
13807;SDS011;40769;51.512;5.494;2024-01-30T12:23:56;3.70;;;3.40;;
13807;SDS011;40769;51.512;5.494;2024-01-30T12:26:23;4.90;;;3.30;;
13807;SDS011;40769;51.512;5.494;2024-01-30T12:28:50;3.22;;;2.92;;
13807;SDS011;40769;51.512;5.494;2024-01-30T12:31:25;3.80;;;2.80;;
13807;SDS011;40769;51.512;5.494;2024-01-30T12:33:54;3.15;;;2.85;;
13807;SDS011;40769;51.512;5.494;2024-01-30T12:36:23;3.13;;;2.55;;
13807;SDS011;40769;51.512;5.494;2024-01-30T12:38:49;4.00;;;2.20;;
13807;SDS011;40769;51.512;5.494;2024-01-30T12:41:15;2.53;;;2.22;;
13807;SDS011;40769;51.512;5.494;2024-01-30T12:43:41;3.78;;;2.00;;
13807;SDS011;40769;51.512;5.494;2024-01-30T12:46:07;2.15;;;1.48;;
13807;SDS011;40769;51.512;5.494;2024-01-30T12:48:32;1.40;;;1.30;;
13807;SDS011;40769;51.512;5.494;2024-01-30T12:50:58;2.58;;;1.58;;
13807;SDS011;40769;51.512;5.494;2024-01-30T12:53:24;2.20;;;1.42;;
13807;SDS011;40769;51.512;5.494;2024-01-30T12:55:49;1.40;;;1.30;;
13807;SDS011;40769;51.512;5.494;2024-01-30T12:58:15;1.20;;;1.10;;
13807;SDS011;40769;51.512;5.494;2024-01-30T13:00:41;1.42;;;1.17;;
13807;SDS011;40769;51.512;5.494;2024-01-30T13:03:08;1.35;;;0.98;;
13807;SDS011;40769;51.512;5.494;2024-01-30T13:05:35;1.20;;;0.98;;
13807;SDS011;40769;51.512;5.494;2024-01-30T13:08:01;1.17;;;0.90;;
13807;SDS011;40769;51.512;5.494;2024-01-30T13:10:26;2.00;;;1.10;;
13807;SDS011;40769;51.512;5.494;2024-01-30T13:12:52;2.92;;;0.82;;
13807;SDS011;40769;51.512;5.494;2024-01-30T13:15:18;1.25;;;1.02;;
13807;SDS011;40769;51.512;5.494;2024-01-30T13:17:44;2.13;;;1.02;;
13807;SDS011;40769;51.512;5.494;2024-01-30T13:20:12;1.75;;;1.10;;
13807;SDS011;40769;51.512;5.494;2024-01-30T13:22:41;3.92;;;1.40;;
13807;SDS011;40769;51.512;5.494;2024-01-30T13:25:08;1.38;;;1.20;;
13807;SDS011;40769;51.512;5.494;2024-01-30T13:27:33;2.35;;;1.30;;
13807;SDS011;40769;51.512;5.494;2024-01-30T13:29:59;1.20;;;0.90;;
13807;SDS011;40769;51.512;5.494;2024-01-30T13:32:25;1.45;;;0.90;;
13807;SDS011;40769;51.512;5.494;2024-01-30T13:34:51;2.05;;;1.30;;
13807;SDS011;40769;51.512;5.494;2024-01-30T13:37:17;3.13;;;1.10;;
13807;SDS011;40769;51.512;5.494;2024-01-30T13:39:43;1.70;;;0.90;;
13807;SDS011;40769;51.512;5.494;2024-01-30T13:42:08;1.63;;;1.17;;
13807;SDS011;40769;51.512;5.494;2024-01-30T13:44:35;1.20;;;0.90;;
13807;SDS011;40769;51.512;5.494;2024-01-30T13:47:00;1.45;;;1.00;;
13807;SDS011;40769;51.512;5.494;2024-01-30T13:49:26;1.73;;;1.10;;
13807;SDS011;40769;51.512;5.494;2024-01-30T13:51:52;1.40;;;1.20;;
13807;SDS011;40769;51.512;5.494;2024-01-30T13:54:18;1.80;;;1.05;;
13807;SDS011;40769;51.512;5.494;2024-01-30T13:56:43;1.70;;;1.00;;
13807;SDS011;40769;51.512;5.494;2024-01-30T13:59:09;0.93;;;0.65;;
13807;SDS011;40769;51.512;5.494;2024-01-30T14:01:34;2.22;;;0.98;;
13807;SDS011;40769;51.512;5.494;2024-01-30T14:04:00;1.45;;;0.65;;
13807;SDS011;40769;51.512;5.494;2024-01-30T14:06:26;1.08;;;0.88;;
13807;SDS011;40769;51.512;5.494;2024-01-30T14:08:51;1.92;;;0.80;;
13807;SDS011;40769;51.512;5.494;2024-01-30T14:11:17;2.00;;;1.02;;
13807;SDS011;40769;51.512;5.494;2024-01-30T14:13:43;1.80;;;0.85;;
13807;SDS011;40769;51.512;5.494;2024-01-30T14:16:08;1.05;;;0.80;;
13807;SDS011;40769;51.512;5.494;2024-01-30T14:18:34;0.80;;;0.80;;
13807;SDS011;40769;51.512;5.494;2024-01-30T14:21:00;1.30;;;1.00;;
13807;SDS011;40769;51.512;5.494;2024-01-30T14:23:25;1.85;;;1.00;;
13807;SDS011;40769;51.512;5.494;2024-01-30T14:25:51;1.58;;;0.93;;
13807;SDS011;40769;51.512;5.494;2024-01-30T14:28:17;1.75;;;1.20;;
13807;SDS011;40769;51.512;5.494;2024-01-30T14:30:43;1.35;;;1.23;;
13807;SDS011;40769;51.512;5.494;2024-01-30T14:33:09;1.42;;;1.08;;
13807;SDS011;40769;51.512;5.494;2024-01-30T14:35:34;1.83;;;1.20;;
13807;SDS011;40769;51.512;5.494;2024-01-30T14:38:00;1.35;;;1.23;;
13807;SDS011;40769;51.512;5.494;2024-01-30T14:40:26;1.63;;;1.50;;
13807;SDS011;40769;51.512;5.494;2024-01-30T14:42:52;1.90;;;1.10;;
13807;SDS011;40769;51.512;5.494;2024-01-30T14:45:18;1.42;;;1.20;;
13807;SDS011;40769;51.512;5.494;2024-01-30T14:47:44;1.92;;;1.38;;
13807;SDS011;40769;51.512;5.494;2024-01-30T14:50:10;1.40;;;1.15;;